createdAt,value
2023-02-14T00:02:25.567Z,1.83
2023-02-14T00:04:52.208Z,1.90
2023-02-14T00:07:18.867Z,1.63
2023-02-14T00:09:45.566Z,1.83
2023-02-14T00:12:12.171Z,1.73
2023-02-14T00:14:57.422Z,2.40
2023-02-14T00:17:24.058Z,1.63
2023-02-14T00:19:50.608Z,1.67
2023-02-14T00:22:17.150Z,1.80
2023-02-14T00:24:43.693Z,1.95
2023-02-14T00:27:10.362Z,2.08
2023-02-14T00:29:36.934Z,2.22
2023-02-14T00:32:03.578Z,1.98
2023-02-14T00:34:30.148Z,1.65
2023-02-14T00:36:56.794Z,2.17
2023-02-14T00:39:23.355Z,1.80
2023-02-14T00:41:50.001Z,1.92
2023-02-14T00:44:16.905Z,1.92
2023-02-14T00:46:43.538Z,1.90
2023-02-14T00:49:10.266Z,1.73
2023-02-14T00:51:37.238Z,1.65
2023-02-14T00:54:04.065Z,1.48
2023-02-14T00:56:30.575Z,2.00
2023-02-14T00:58:57.168Z,1.88
2023-02-14T01:01:23.889Z,1.33
2023-02-14T01:03:50.753Z,1.83
2023-02-14T01:06:17.333Z,1.67
2023-02-14T01:08:43.907Z,1.75
2023-02-14T01:11:15.666Z,1.80
2023-02-14T01:13:43.276Z,1.90
2023-02-14T01:16:12.431Z,1.80
2023-02-14T01:18:39.437Z,2.13
2023-02-14T01:21:14.212Z,2.42
2023-02-14T01:23:41.556Z,2.10
2023-02-14T01:26:08.832Z,1.80
2023-02-14T01:28:35.508Z,2.03
2023-02-14T01:31:16.526Z,1.80
2023-02-14T01:33:44.857Z,2.45
2023-02-14T01:36:22.678Z,2.00
2023-02-14T01:38:52.210Z,1.77
2023-02-14T01:44:05.767Z,1.60
2023-02-14T01:46:35.067Z,2.20
2023-02-14T01:49:08.730Z,1.80
2023-02-14T01:51:36.028Z,1.70
2023-02-14T01:54:03.009Z,2.08
2023-02-14T01:56:35.693Z,2.00
2023-02-14T01:59:03.050Z,1.77
2023-02-14T02:01:30.378Z,2.20
2023-02-14T02:03:59.858Z,2.28
2023-02-14T02:06:29.849Z,1.83
2023-02-14T02:09:15.549Z,2.00
2023-02-14T02:11:42.616Z,2.17
2023-02-14T02:14:18.573Z,3.03
2023-02-14T02:17:23.254Z,2.83
2023-02-14T02:20:01.969Z,2.00
2023-02-14T02:22:51.266Z,2.20
2023-02-14T02:25:45.653Z,2.30
2023-02-14T02:28:21.217Z,2.17
2023-02-14T02:31:04.537Z,2.80
2023-02-14T02:34:12.915Z,2.05
2023-02-14T02:36:51.841Z,2.20
2023-02-14T02:39:31.181Z,2.60
2023-02-14T02:42:19.535Z,2.67
2023-02-14T02:45:11.572Z,2.92
2023-02-14T02:47:46.972Z,2.70
2023-02-14T02:50:45.414Z,2.80
2023-02-14T02:53:20.688Z,2.80
2023-02-14T02:56:30.776Z,2.90
2023-02-14T02:59:07.232Z,2.53
2023-02-14T03:01:38.402Z,3.05
2023-02-14T03:04:29.710Z,3.35
2023-02-14T03:06:57.151Z,2.80
2023-02-14T03:09:23.677Z,3.17
2023-02-14T03:12:19.144Z,2.90
2023-02-14T03:15:41.167Z,3.20
2023-02-14T03:18:28.940Z,3.15
2023-02-14T03:21:04.694Z,2.75
2023-02-14T03:23:39.419Z,3.70
2023-02-14T03:26:18.703Z,3.67
2023-02-14T03:28:57.642Z,3.10
2023-02-14T03:31:27.866Z,3.45
2023-02-14T03:34:02.079Z,3.60
2023-02-14T03:36:32.345Z,3.60
2023-02-14T03:39:43.247Z,3.63
2023-02-14T03:42:28.580Z,3.58
2023-02-14T03:44:55.721Z,3.10
2023-02-14T03:47:24.935Z,3.78
2023-02-14T03:49:54.893Z,3.08
2023-02-14T03:52:22.787Z,3.97
2023-02-14T03:54:52.534Z,3.45
2023-02-14T03:59:50.974Z,3.30
2023-02-14T04:02:25.690Z,3.35
2023-02-14T04:04:53.169Z,3.47
2023-02-14T04:07:22.000Z,3.63
2023-02-14T04:09:48.989Z,3.75
2023-02-14T04:12:18.227Z,3.47
2023-02-14T04:14:46.326Z,3.33
2023-02-14T04:17:31.556Z,3.45
2023-02-14T04:19:58.054Z,3.65
2023-02-14T04:22:24.586Z,3.22
2023-02-14T04:24:51.179Z,3.20
2023-02-14T04:27:17.709Z,3.33
2023-02-14T04:29:49.448Z,3.45
2023-02-14T04:32:20.961Z,3.35
2023-02-14T04:34:47.575Z,3.10
2023-02-14T04:37:15.958Z,3.30
2023-02-14T04:39:42.504Z,3.13
2023-02-14T04:42:09.412Z,2.70
2023-02-14T04:44:38.313Z,3.08
2023-02-14T04:47:05.569Z,2.75
2023-02-14T04:49:32.062Z,3.17
2023-02-14T04:51:58.798Z,2.83
2023-02-14T04:54:25.352Z,3.42
2023-02-14T04:56:51.961Z,2.90
2023-02-14T04:59:18.533Z,2.78
2023-02-14T05:01:45.111Z,3.45
2023-02-14T05:04:11.880Z,3.70
2023-02-14T05:06:38.430Z,3.47
2023-02-14T05:09:05.185Z,3.05
2023-02-14T05:11:32.094Z,3.33
2023-02-14T05:13:58.751Z,2.70
2023-02-14T05:16:25.690Z,3.00
2023-02-14T05:18:52.275Z,2.60
2023-02-14T05:21:18.996Z,2.65
2023-02-14T05:23:45.575Z,2.92
2023-02-14T05:26:12.103Z,3.03
2023-02-14T05:28:41.083Z,2.53
2023-02-14T05:31:08.842Z,2.80
2023-02-14T05:33:35.455Z,2.92
2023-02-14T05:36:02.839Z,2.67
2023-02-14T05:38:30.296Z,2.53
2023-02-14T05:40:57.315Z,2.65
2023-02-14T05:43:23.983Z,3.10
2023-02-14T05:45:50.709Z,2.90
2023-02-14T05:48:17.720Z,2.47
2023-02-14T05:50:45.624Z,2.80
2023-02-14T05:53:12.957Z,2.47
2023-02-14T05:55:39.757Z,2.65
2023-02-14T05:58:09.694Z,2.70
2023-02-14T06:00:38.831Z,2.42
2023-02-14T06:03:06.629Z,2.83
2023-02-14T06:05:33.225Z,2.17
2023-02-14T06:08:00.874Z,2.85
2023-02-14T06:10:27.838Z,2.22
2023-02-14T06:12:54.519Z,2.42
2023-02-14T06:15:21.538Z,2.55
2023-02-14T06:17:57.389Z,2.80
2023-02-14T06:20:25.022Z,3.30
2023-02-14T06:22:52.111Z,2.50
2023-02-14T06:25:19.078Z,2.70
2023-02-14T06:27:49.037Z,2.70
2023-02-14T06:30:16.899Z,3.55
2023-02-14T06:32:43.593Z,3.03
2023-02-14T06:35:10.200Z,2.83
2023-02-14T06:37:38.891Z,2.90
2023-02-14T06:40:06.297Z,3.13
2023-02-14T06:42:33.239Z,3.28
2023-02-14T06:45:03.186Z,2.83
2023-02-14T06:47:29.830Z,2.85
2023-02-14T06:49:56.393Z,3.20
2023-02-14T06:52:23.038Z,3.00
2023-02-14T06:54:49.643Z,3.00
2023-02-14T06:57:16.200Z,2.70
2023-02-14T06:59:42.831Z,2.97
2023-02-14T07:02:11.596Z,3.00
2023-02-14T07:04:38.363Z,2.78
2023-02-14T07:07:05.508Z,3.30
2023-02-14T07:09:32.078Z,2.63
2023-02-14T07:11:58.637Z,3.53
2023-02-14T07:14:25.145Z,3.00
2023-02-14T07:16:53.048Z,3.58
2023-02-14T07:19:19.775Z,2.75
2023-02-14T07:21:46.316Z,3.50
2023-02-14T07:24:12.873Z,2.83
2023-02-14T07:26:39.389Z,2.55
2023-02-14T07:29:06.012Z,2.78
2023-02-14T07:31:32.772Z,2.90
2023-02-14T07:34:01.237Z,3.05
2023-02-14T07:36:27.907Z,2.70
2023-02-14T07:38:56.009Z,2.72
2023-02-14T07:41:22.952Z,2.88
2023-02-14T07:43:49.494Z,2.78
2023-02-14T07:46:17.564Z,3.40
2023-02-14T07:48:44.334Z,3.45
2023-02-14T07:51:11.301Z,3.13
2023-02-14T07:53:37.894Z,3.20
2023-02-14T07:56:04.693Z,2.70
2023-02-14T07:58:31.343Z,2.75
2023-02-14T08:00:58.344Z,3.30
2023-02-14T08:03:25.115Z,3.38
2023-02-14T08:05:57.563Z,4.32
2023-02-14T08:08:28.946Z,3.88
2023-02-14T08:10:55.842Z,4.15
2023-02-14T08:13:22.568Z,3.78
2023-02-14T08:16:07.758Z,3.78
2023-02-14T08:18:42.041Z,3.50
2023-02-14T08:21:10.509Z,3.67
2023-02-14T08:23:37.345Z,3.63
2023-02-14T08:26:04.452Z,3.17
2023-02-14T08:28:33.153Z,3.85
2023-02-14T08:31:00.626Z,3.67
2023-02-14T08:33:27.474Z,3.20
2023-02-14T08:35:54.248Z,2.72
2023-02-14T08:38:20.936Z,3.30
2023-02-14T08:40:47.638Z,4.45
2023-02-14T08:43:15.558Z,5.90
2023-02-14T08:45:42.187Z,6.15
2023-02-14T08:48:11.870Z,5.65
2023-02-14T08:50:39.350Z,4.85
2023-02-14T08:53:09.815Z,3.50
2023-02-14T08:55:36.837Z,3.38
2023-02-14T08:58:04.478Z,3.28
2023-02-14T09:00:32.266Z,3.40
2023-02-14T09:02:58.994Z,3.90
2023-02-14T09:05:26.572Z,3.65
2023-02-14T09:07:55.921Z,4.32
2023-02-14T09:10:22.564Z,4.05
2023-02-14T09:12:49.195Z,4.68
2023-02-14T09:15:15.734Z,3.85
2023-02-14T09:17:42.441Z,3.55
2023-02-14T09:20:11.002Z,3.63
2023-02-14T09:22:37.601Z,4.05
2023-02-14T09:25:04.716Z,3.72
2023-02-14T09:27:32.333Z,3.83
2023-02-14T09:29:59.048Z,4.03
2023-02-14T09:32:26.642Z,4.05
2023-02-14T09:35:11.814Z,4.28
2023-02-14T09:37:38.330Z,4.10
2023-02-14T09:40:05.830Z,3.47
2023-02-14T09:42:51.237Z,4.28
2023-02-14T09:45:21.718Z,4.43
2023-02-14T09:47:55.513Z,3.80
2023-02-14T09:50:30.314Z,4.30
2023-02-14T09:53:02.008Z,4.22
2023-02-14T09:55:38.850Z,4.22
2023-02-14T09:58:49.324Z,5.22
2023-02-14T10:01:21.675Z,4.78
2023-02-14T10:03:57.353Z,4.22
2023-02-14T10:06:50.137Z,3.88
2023-02-14T10:09:34.433Z,4.20
2023-02-14T10:12:01.649Z,3.75
2023-02-14T10:14:36.561Z,3.80
2023-02-14T10:17:10.556Z,4.03
2023-02-14T10:19:48.311Z,4.95
2023-02-14T10:22:17.548Z,3.70
2023-02-14T10:25:16.319Z,3.92
2023-02-14T10:27:46.087Z,4.00
2023-02-14T10:30:18.218Z,3.88
2023-02-14T10:33:03.078Z,3.97
2023-02-14T10:35:50.130Z,3.88
2023-02-14T10:38:40.724Z,3.83
2023-02-14T10:41:28.789Z,3.28
2023-02-14T10:44:14.782Z,3.47
2023-02-14T10:46:55.746Z,3.95
2023-02-14T10:49:28.321Z,3.72
2023-02-14T10:52:18.736Z,2.60
2023-02-14T10:54:56.924Z,2.75
2023-02-14T10:57:27.901Z,2.60
2023-02-14T10:59:58.142Z,2.85
2023-02-14T11:02:31.135Z,2.75
2023-02-14T11:04:57.776Z,2.83
2023-02-14T11:07:24.290Z,3.65
2023-02-14T11:09:50.861Z,2.95
2023-02-14T11:12:33.876Z,2.80
2023-02-14T11:15:21.664Z,3.35
2023-02-14T11:17:48.538Z,3.35
2023-02-14T11:20:32.128Z,3.33
2023-02-14T11:22:58.680Z,2.97
2023-02-14T11:25:29.609Z,3.25
2023-02-14T11:28:04.727Z,3.70
2023-02-14T11:30:38.874Z,3.53
2023-02-14T11:33:05.883Z,3.72
2023-02-14T11:35:37.049Z,3.45
2023-02-14T11:38:10.174Z,3.65
2023-02-14T11:40:38.247Z,3.80
2023-02-14T11:43:14.333Z,3.80
2023-02-14T11:45:45.809Z,3.63
2023-02-14T11:48:37.221Z,3.35
2023-02-14T11:51:14.667Z,3.47
2023-02-14T11:53:49.490Z,4.03
2023-02-14T11:56:17.670Z,3.83
2023-02-14T11:58:47.246Z,4.43
2023-02-14T12:03:46.562Z,4.20
2023-02-14T12:06:13.784Z,4.65
2023-02-14T12:08:42.025Z,5.07
2023-02-14T12:11:22.619Z,4.28
2023-02-14T12:13:57.108Z,4.40
2023-02-14T12:16:44.043Z,4.70
2023-02-14T12:19:17.698Z,4.40
2023-02-14T12:21:51.904Z,4.00
2023-02-14T12:24:23.925Z,4.72
2023-02-14T12:27:22.707Z,4.35
2023-02-14T12:29:53.150Z,4.07
2023-02-14T12:32:25.486Z,4.20
2023-02-14T12:34:55.811Z,4.50
2023-02-14T12:38:02.632Z,4.35
2023-02-14T12:40:49.834Z,4.60
2023-02-14T12:43:38.404Z,3.92
2023-02-14T12:46:08.090Z,4.00
2023-02-14T12:49:32.023Z,4.68
2023-02-14T12:52:39.314Z,4.13
2023-02-14T12:55:11.901Z,4.45
2023-02-14T12:57:51.797Z,4.20
2023-02-14T13:00:37.082Z,4.18
2023-02-14T13:03:28.401Z,3.92
2023-02-14T13:05:55.004Z,4.00
2023-02-14T13:09:01.475Z,3.60
2023-02-14T13:11:53.137Z,4.05
2023-02-14T13:14:37.094Z,3.88
2023-02-14T13:17:11.859Z,4.93
2023-02-14T13:20:06.842Z,5.00
2023-02-14T13:22:34.471Z,4.47
2023-02-14T13:25:05.982Z,5.15
2023-02-14T13:27:36.405Z,4.65
2023-02-14T13:30:30.006Z,4.95
2023-02-14T13:32:59.095Z,4.63
2023-02-14T13:35:26.607Z,4.78
2023-02-14T13:37:56.273Z,4.90
2023-02-14T13:40:24.829Z,4.63
2023-02-14T13:42:56.465Z,5.07
2023-02-14T13:45:32.728Z,5.28
2023-02-14T13:48:14.025Z,4.75
2023-02-14T13:50:58.137Z,4.82
2023-02-14T13:53:43.918Z,5.97
2023-02-14T13:56:13.457Z,7.05
2023-02-14T14:01:35.955Z,6.22
2023-02-14T14:04:31.893Z,6.15
2023-02-14T14:07:04.733Z,5.75
2023-02-14T14:09:43.743Z,6.50
2023-02-14T14:12:28.720Z,7.50
2023-02-14T14:15:08.104Z,7.38
2023-02-14T14:17:50.596Z,6.88
2023-02-14T14:20:18.650Z,6.28
2023-02-14T14:22:56.473Z,7.10
2023-02-14T14:25:37.329Z,7.07
2023-02-14T14:28:20.140Z,8.15
2023-02-14T14:30:46.767Z,7.50
2023-02-14T14:33:26.368Z,6.97
2023-02-14T14:35:54.020Z,7.50
2023-02-14T14:38:20.742Z,7.47
2023-02-14T14:40:48.163Z,7.95
2023-02-14T14:43:21.565Z,8.63
2023-02-14T14:45:49.338Z,8.80
2023-02-14T14:48:44.013Z,8.30
2023-02-14T14:51:27.132Z,8.13
2023-02-14T14:54:20.164Z,9.32
2023-02-14T14:57:01.652Z,9.23
2023-02-14T14:59:37.398Z,9.90
2023-02-14T15:02:21.402Z,8.93
2023-02-14T15:04:48.156Z,9.15
2023-02-14T15:07:32.904Z,9.10
2023-02-14T15:10:00.232Z,8.57
2023-02-14T15:12:45.999Z,8.00
2023-02-14T15:15:15.024Z,8.15
2023-02-14T15:17:42.469Z,9.35
2023-02-14T15:20:15.265Z,8.85
2023-02-14T15:22:44.937Z,8.85
2023-02-14T15:25:16.666Z,9.02
2023-02-14T15:27:43.393Z,8.75
2023-02-14T15:30:19.255Z,8.80
2023-02-14T15:32:47.260Z,8.70
2023-02-14T15:35:19.047Z,8.85
2023-02-14T15:37:46.207Z,8.85
2023-02-14T15:40:24.219Z,8.95
2023-02-14T15:42:56.860Z,7.65
2023-02-14T15:45:27.670Z,8.43
2023-02-14T15:47:56.658Z,7.60
2023-02-14T15:50:26.410Z,7.25
2023-02-14T15:52:57.475Z,6.72
2023-02-14T15:55:27.825Z,6.75
2023-02-14T15:58:01.365Z,6.10
2023-02-14T16:00:31.823Z,6.57
2023-02-14T16:03:09.218Z,5.82
2023-02-14T16:05:35.800Z,6.28
2023-02-14T16:08:03.962Z,5.60
2023-02-14T16:10:37.311Z,5.53
2023-02-14T16:13:19.724Z,5.78
2023-02-14T16:16:04.080Z,5.55
2023-02-14T16:18:40.739Z,5.22
2023-02-14T16:21:30.719Z,5.35
2023-02-14T16:24:10.836Z,5.65
2023-02-14T16:26:45.384Z,5.07
2023-02-14T16:29:16.470Z,6.07
2023-02-14T16:32:06.260Z,6.38
2023-02-14T16:34:32.341Z,5.72
2023-02-14T16:37:06.785Z,5.60
2023-02-14T16:39:34.040Z,5.38
2023-02-14T16:42:00.839Z,5.40
2023-02-14T16:44:27.751Z,4.25
2023-02-14T16:46:54.335Z,4.90
2023-02-14T16:49:23.015Z,4.60
2023-02-14T16:51:58.060Z,4.87
2023-02-14T16:54:26.169Z,5.03
2023-02-14T16:56:53.224Z,4.75
2023-02-14T16:59:19.879Z,5.32
2023-02-14T17:01:46.514Z,5.25
2023-02-14T17:04:13.296Z,4.65
2023-02-14T17:06:42.784Z,5.00
2023-02-14T17:11:41.753Z,5.43
2023-02-14T17:14:09.443Z,4.45
2023-02-14T17:16:36.114Z,5.13
2023-02-14T17:19:03.200Z,5.57
2023-02-14T17:21:30.015Z,5.15
2023-02-14T17:23:58.404Z,5.38
2023-02-14T17:26:25.354Z,5.78
2023-02-14T17:28:52.070Z,6.00
2023-02-14T17:31:19.254Z,5.63
2023-02-14T17:33:45.947Z,5.65
2023-02-14T17:36:13.760Z,5.50
2023-02-14T17:38:43.314Z,5.47
2023-02-14T17:43:43.636Z,5.63
2023-02-14T17:46:10.628Z,6.07
2023-02-14T17:48:37.363Z,5.53
2023-02-14T17:51:05.654Z,5.43
2023-02-14T17:53:34.000Z,5.10
2023-02-14T17:56:06.912Z,6.15
2023-02-14T17:58:33.498Z,6.05
2023-02-14T18:01:08.553Z,5.55
2023-02-14T18:03:35.419Z,5.90
2023-02-14T18:06:02.802Z,5.85
2023-02-14T18:08:31.373Z,6.07
2023-02-14T18:10:58.123Z,6.13
2023-02-14T18:13:25.487Z,5.80
2023-02-14T18:15:53.264Z,5.97
2023-02-14T18:18:20.251Z,6.03
2023-02-14T18:20:54.126Z,6.72
2023-02-14T18:23:20.895Z,7.57
2023-02-14T18:25:54.333Z,7.07
2023-02-14T18:28:25.576Z,7.40
2023-02-14T18:30:52.627Z,7.55
2023-02-14T18:33:19.203Z,8.45
2023-02-14T18:35:45.797Z,8.98
2023-02-14T18:38:12.618Z,9.57
2023-02-14T18:40:40.045Z,9.50
2023-02-14T18:43:07.005Z,9.30
2023-02-14T18:45:38.454Z,9.65
2023-02-14T18:48:05.718Z,8.52
2023-02-14T18:50:34.882Z,9.48
2023-02-14T18:53:01.435Z,8.68
2023-02-14T18:55:36.416Z,8.88
2023-02-14T18:58:03.074Z,8.38
2023-02-14T19:03:13.760Z,9.45
2023-02-14T19:05:40.315Z,8.68
2023-02-14T19:08:06.923Z,9.35
2023-02-14T19:10:33.647Z,9.50
2023-02-14T19:13:00.170Z,9.95
2023-02-14T19:15:27.884Z,9.10
2023-02-14T19:17:54.346Z,9.43
2023-02-14T19:20:20.926Z,9.13
2023-02-14T19:22:47.409Z,9.70
2023-02-14T19:25:13.930Z,9.93
2023-02-14T19:27:40.750Z,10.00
2023-02-14T19:30:07.848Z,10.73
2023-02-14T19:32:34.464Z,10.70
2023-02-14T19:35:01.099Z,10.10
2023-02-14T19:37:27.713Z,9.50
2023-02-14T19:39:54.818Z,9.63
2023-02-14T19:42:25.333Z,9.75
2023-02-14T19:44:52.277Z,10.80
2023-02-14T19:47:29.060Z,10.02
2023-02-14T19:50:00.305Z,9.80
2023-02-14T19:52:28.294Z,10.48
2023-02-14T19:54:55.887Z,9.80
2023-02-14T19:57:22.466Z,10.13
2023-02-14T19:59:49.290Z,9.82
2023-02-14T20:02:17.960Z,9.30
2023-02-14T20:04:44.668Z,10.10
2023-02-14T20:07:11.549Z,9.70
2023-02-14T20:09:38.221Z,9.68
2023-02-14T20:12:05.021Z,9.23
2023-02-14T20:14:40.904Z,9.95
2023-02-14T20:17:17.273Z,9.75
2023-02-14T20:19:44.110Z,9.73
2023-02-14T20:22:11.103Z,10.98
2023-02-14T20:24:40.916Z,9.55
2023-02-14T20:27:08.422Z,9.48
2023-02-14T20:29:39.738Z,8.88
2023-02-14T20:32:06.674Z,9.18
2023-02-14T20:34:33.277Z,9.30
2023-02-14T20:37:05.559Z,9.40
2023-02-14T20:39:35.986Z,9.02
2023-02-14T20:42:06.405Z,9.02
2023-02-14T20:44:33.869Z,8.70
2023-02-14T20:47:00.704Z,8.43
2023-02-14T20:49:28.775Z,8.25
2023-02-14T20:51:56.123Z,8.63
2023-02-14T20:54:25.515Z,8.20
2023-02-14T20:56:52.955Z,8.43
2023-02-14T20:59:24.355Z,9.57
2023-02-14T21:01:51.653Z,8.30
2023-02-14T21:04:18.382Z,8.30
2023-02-14T21:06:44.969Z,8.65
2023-02-14T21:09:11.628Z,9.20
2023-02-14T21:11:38.168Z,9.15
2023-02-14T21:14:04.825Z,9.60
2023-02-14T21:16:31.417Z,9.50
2023-02-14T21:18:59.796Z,10.60
2023-02-14T21:21:36.535Z,8.55
2023-02-14T21:24:14.706Z,10.50
2023-02-14T21:26:44.594Z,9.88
2023-02-14T21:29:11.301Z,10.75
2023-02-14T21:31:38.238Z,11.40
2023-02-14T21:34:05.013Z,11.52
2023-02-14T21:36:35.476Z,11.10
2023-02-14T21:39:03.714Z,10.85
2023-02-14T21:41:31.218Z,12.70
2023-02-14T21:44:01.582Z,11.98
2023-02-14T21:46:33.846Z,13.32
2023-02-14T21:49:23.004Z,13.98
2023-02-14T21:51:49.703Z,12.98
2023-02-14T21:54:16.803Z,14.77
2023-02-14T21:56:43.883Z,13.88
2023-02-14T21:59:10.788Z,14.25
2023-02-14T22:01:41.659Z,13.60
2023-02-14T22:04:12.627Z,13.80
2023-02-14T22:06:40.574Z,14.98
2023-02-14T22:09:07.583Z,14.95
2023-02-14T22:11:34.446Z,14.70
2023-02-14T22:14:00.967Z,15.50
2023-02-14T22:16:27.940Z,15.32
2023-02-14T22:18:54.603Z,15.30
2023-02-14T22:21:23.676Z,16.00
2023-02-14T22:23:50.770Z,13.73
2023-02-14T22:26:20.396Z,14.18
2023-02-14T22:28:48.032Z,15.38
2023-02-14T22:31:16.372Z,15.88
2023-02-14T22:33:43.014Z,15.73
2023-02-14T22:36:09.981Z,15.73
2023-02-14T22:38:37.053Z,17.88
2023-02-14T22:41:10.982Z,16.13
2023-02-14T22:43:38.238Z,15.48
2023-02-14T22:46:06.719Z,16.83
2023-02-14T22:48:34.894Z,17.02
2023-02-14T22:51:08.433Z,16.27
2023-02-14T22:53:35.175Z,15.77
2023-02-14T22:56:12.436Z,16.17
2023-02-14T22:58:39.376Z,17.38
2023-02-14T23:01:08.087Z,16.48
2023-02-14T23:03:34.674Z,17.00
2023-02-14T23:06:01.451Z,16.83
2023-02-14T23:08:28.181Z,16.67
2023-02-14T23:10:54.708Z,17.80
2023-02-14T23:13:39.956Z,16.98
2023-02-14T23:24:49.782Z,16.52
2023-02-14T23:27:21.711Z,17.55
2023-02-14T23:29:48.380Z,18.08
2023-02-14T23:32:15.288Z,18.45
2023-02-14T23:34:43.272Z,17.85
2023-02-14T23:37:11.001Z,17.90
2023-02-14T23:39:37.869Z,17.30
2023-02-14T23:42:10.828Z,18.92
2023-02-14T23:44:37.519Z,17.48
2023-02-14T23:47:06.004Z,18.70
2023-02-14T23:49:33.819Z,18.95
2023-02-14T23:52:00.423Z,18.02
2023-02-14T23:54:27.112Z,18.92
2023-02-14T23:56:54.094Z,19.75
2023-02-14T23:59:21.362Z,18.40
